createdAt,value
2022-10-17T00:00:51.819Z,14.90
2022-10-17T00:01:51.832Z,14.89
2022-10-17T00:02:51.780Z,14.89
2022-10-17T00:03:51.770Z,14.90
2022-10-17T00:04:51.761Z,14.89
2022-10-17T00:05:51.749Z,14.90
2022-10-17T00:06:51.779Z,14.89
2022-10-17T00:07:51.839Z,14.90
2022-10-17T00:08:51.710Z,14.86
2022-10-17T00:09:51.761Z,14.86
2022-10-17T00:10:51.700Z,14.85
2022-10-17T00:11:51.680Z,14.85
2022-10-17T00:12:51.675Z,14.86
2022-10-17T00:13:51.664Z,14.85
2022-10-17T00:14:51.670Z,14.82
2022-10-17T00:15:51.640Z,14.83
2022-10-17T00:16:51.651Z,14.82
2022-10-17T00:17:51.620Z,14.83
2022-10-17T00:18:51.608Z,14.83
2022-10-17T00:19:51.603Z,14.82
2022-10-17T00:20:51.582Z,14.82
2022-10-17T00:21:51.609Z,14.79
2022-10-17T00:22:51.667Z,14.79
2022-10-17T00:23:51.611Z,14.78
2022-10-17T00:24:51.549Z,14.79
2022-10-17T00:25:51.541Z,14.79
2022-10-17T00:26:51.619Z,14.79
2022-10-17T00:27:51.571Z,14.79
2022-10-17T00:28:51.583Z,14.78
2022-10-17T00:29:51.491Z,14.78
2022-10-17T00:30:51.480Z,14.79
2022-10-17T00:32:51.479Z,14.82
2022-10-17T00:33:51.451Z,14.78
2022-10-17T00:34:51.429Z,14.79
2022-10-17T00:35:51.430Z,14.79
2022-10-17T00:36:51.411Z,14.79
2022-10-17T00:37:51.409Z,14.79
2022-10-17T00:38:51.529Z,14.82
2022-10-17T00:39:51.380Z,14.83
2022-10-17T00:40:51.423Z,14.82
2022-10-17T00:41:51.393Z,14.83
2022-10-17T00:42:51.350Z,14.83
2022-10-17T00:43:51.340Z,14.82
2022-10-17T00:44:51.330Z,14.82
2022-10-17T00:45:51.319Z,14.79
2022-10-17T00:47:02.010Z,14.82
2022-10-17T00:47:51.349Z,14.78
2022-10-17T00:48:51.289Z,14.78
2022-10-17T00:49:51.319Z,14.78
2022-10-17T00:50:51.260Z,14.78
2022-10-17T00:51:51.259Z,14.77
2022-10-17T00:52:51.240Z,14.77
2022-10-17T00:53:51.260Z,14.77
2022-10-17T00:54:51.230Z,14.77
2022-10-17T00:55:51.885Z,14.77
2022-10-17T00:56:51.199Z,14.78
2022-10-17T00:57:51.189Z,14.77
2022-10-17T00:58:51.200Z,14.77
2022-10-17T00:59:51.170Z,14.77
2022-10-17T01:00:51.162Z,14.73
2022-10-17T01:01:51.151Z,14.73
2022-10-17T01:02:51.130Z,14.73
2022-10-17T01:03:51.362Z,14.70
2022-10-17T01:04:56.610Z,14.70
2022-10-17T01:05:51.760Z,14.69
2022-10-17T01:06:51.100Z,14.70
2022-10-17T01:07:51.079Z,14.69
2022-10-17T01:08:51.076Z,14.67
2022-10-17T01:09:51.069Z,14.66
2022-10-17T01:10:51.080Z,14.67
2022-10-17T01:11:51.050Z,14.67
2022-10-17T01:12:51.033Z,14.67
2022-10-17T01:13:51.020Z,14.69
2022-10-17T01:14:51.030Z,14.70
2022-10-17T01:15:51.007Z,14.70
2022-10-17T01:16:50.980Z,14.73
2022-10-17T01:17:51.750Z,14.71
2022-10-17T01:18:50.961Z,14.73
2022-10-17T01:19:51.021Z,14.71
2022-10-17T01:20:50.951Z,14.74
2022-10-17T01:21:50.931Z,14.73
2022-10-17T01:22:50.953Z,14.70
2022-10-17T01:23:50.910Z,14.70
2022-10-17T01:24:50.904Z,14.67
2022-10-17T01:25:50.891Z,14.67
2022-10-17T01:26:50.881Z,14.67
2022-10-17T01:27:51.539Z,14.67
2022-10-17T01:28:50.887Z,14.66
2022-10-17T01:29:50.841Z,14.69
2022-10-17T01:30:58.562Z,14.66
2022-10-17T01:31:50.820Z,14.67
2022-10-17T01:32:50.810Z,14.67
2022-10-17T01:33:50.804Z,14.66
2022-10-17T01:34:50.789Z,14.66
2022-10-17T01:35:50.780Z,14.64
2022-10-17T01:36:50.821Z,14.63
2022-10-17T01:37:50.759Z,14.63
2022-10-17T01:38:50.740Z,14.63
2022-10-17T01:39:50.740Z,14.63
2022-10-17T01:40:50.730Z,14.61
2022-10-17T01:41:50.717Z,14.64
2022-10-17T01:42:50.730Z,14.64
2022-10-17T01:43:50.723Z,14.66
2022-10-17T01:44:50.683Z,14.66
2022-10-17T01:45:51.352Z,14.66
2022-10-17T01:46:50.710Z,14.69
2022-10-17T01:47:50.650Z,14.67
2022-10-17T01:48:50.641Z,14.67
2022-10-17T01:49:50.667Z,14.67
2022-10-17T01:50:50.621Z,14.64
2022-10-17T01:51:50.611Z,14.66
2022-10-17T01:52:50.591Z,14.64
2022-10-17T01:53:50.594Z,14.66
2022-10-17T01:54:50.578Z,14.66
2022-10-17T01:55:53.833Z,14.66
2022-10-17T01:56:50.552Z,14.66
2022-10-17T01:57:50.552Z,14.67
2022-10-17T01:58:50.531Z,14.64
2022-10-17T01:59:50.520Z,14.67
2022-10-17T02:00:50.525Z,14.67
2022-10-17T02:01:50.601Z,14.67
2022-10-17T02:02:50.483Z,14.66
2022-10-17T02:03:50.533Z,14.66
2022-10-17T02:04:50.527Z,14.64
2022-10-17T02:05:50.461Z,14.63
2022-10-17T02:06:50.441Z,14.63
2022-10-17T02:07:50.443Z,14.61
2022-10-17T02:08:50.429Z,14.59
2022-10-17T02:09:50.441Z,14.61
2022-10-17T02:10:50.430Z,14.58
2022-10-17T02:11:50.411Z,14.58
2022-10-17T02:12:50.383Z,14.56
2022-10-17T02:13:50.401Z,14.55
2022-10-17T02:14:50.410Z,14.55
2022-10-17T02:15:50.374Z,14.55
2022-10-17T02:16:50.341Z,14.55
2022-10-17T02:17:50.330Z,14.53
2022-10-17T02:18:50.311Z,14.53
2022-10-17T02:19:50.330Z,14.52
2022-10-17T02:20:50.300Z,14.51
2022-10-17T02:21:50.290Z,14.49
2022-10-17T02:22:50.271Z,14.49
2022-10-17T02:23:50.263Z,14.48
2022-10-17T02:24:50.281Z,14.46
2022-10-17T02:25:50.241Z,14.46
2022-10-17T02:26:50.232Z,14.46
2022-10-17T02:27:50.221Z,14.46
2022-10-17T02:28:50.246Z,14.44
2022-10-17T02:29:50.202Z,14.44
2022-10-17T02:30:50.211Z,14.41
2022-10-17T02:31:50.179Z,14.40
2022-10-17T02:32:50.448Z,14.40
2022-10-17T02:33:50.160Z,14.38
2022-10-17T02:34:50.141Z,14.37
2022-10-17T02:35:50.180Z,14.34
2022-10-17T02:36:50.121Z,14.34
2022-10-17T02:37:50.140Z,14.33
2022-10-17T02:38:50.120Z,14.31
2022-10-17T02:39:50.092Z,14.30
2022-10-17T02:40:50.080Z,14.27
2022-10-17T02:41:50.101Z,14.23
2022-10-17T02:42:50.059Z,14.23
2022-10-17T02:43:50.043Z,14.21
2022-10-17T02:44:50.091Z,14.18
2022-10-17T02:45:50.774Z,14.19
2022-10-17T02:46:50.010Z,14.19
2022-10-17T02:47:50.051Z,14.22
2022-10-17T02:48:50.000Z,14.23
2022-10-17T02:49:50.001Z,14.23
2022-10-17T02:50:49.961Z,14.26
2022-10-17T02:51:50.081Z,14.22
2022-10-17T02:52:49.950Z,14.21
2022-10-17T02:53:49.932Z,14.19
2022-10-17T02:54:49.920Z,14.19
2022-10-17T02:55:49.918Z,14.19
2022-10-17T02:56:49.900Z,14.19
2022-10-17T02:57:49.920Z,14.18
2022-10-17T02:58:49.880Z,14.18
2022-10-17T02:59:49.879Z,14.18
2022-10-17T03:00:49.961Z,14.15
2022-10-17T03:01:49.850Z,14.13
2022-10-17T03:02:49.840Z,14.13
2022-10-17T03:03:49.880Z,14.12
2022-10-17T03:04:49.820Z,14.13
2022-10-17T03:05:49.800Z,14.13
2022-10-17T03:06:49.800Z,14.12
2022-10-17T03:07:49.780Z,14.13
2022-10-17T03:08:49.790Z,14.13
2022-10-17T03:09:49.793Z,14.13
2022-10-17T03:10:49.752Z,14.13
2022-10-17T03:11:49.738Z,14.13
2022-10-17T03:12:49.731Z,14.13
2022-10-17T03:13:49.740Z,14.13
2022-10-17T03:14:49.711Z,14.12
2022-10-17T03:15:49.701Z,14.12
2022-10-17T03:16:49.691Z,14.12
2022-10-17T03:17:49.673Z,14.12
2022-10-17T03:18:50.278Z,14.11
2022-10-17T03:19:49.710Z,14.11
2022-10-17T03:20:49.641Z,14.11
2022-10-17T03:21:49.631Z,14.11
2022-10-17T03:22:49.622Z,14.11
2022-10-17T03:23:49.610Z,14.08
2022-10-17T03:24:49.601Z,14.08
2022-10-17T03:25:49.640Z,14.09
2022-10-17T03:26:49.592Z,14.11
2022-10-17T03:27:49.561Z,14.12
2022-10-17T03:28:52.076Z,14.11
2022-10-17T03:29:49.551Z,14.11
2022-10-17T03:30:49.541Z,14.09
2022-10-17T03:31:49.561Z,14.09
2022-10-17T03:32:49.510Z,14.09
2022-10-17T03:33:49.499Z,14.12
2022-10-17T03:34:49.530Z,14.13
2022-10-17T03:36:49.481Z,14.13
2022-10-17T03:37:49.460Z,14.12
2022-10-17T03:38:49.450Z,14.12
2022-10-17T03:39:49.431Z,14.11
2022-10-17T03:40:49.451Z,14.11
2022-10-17T03:41:49.412Z,14.09
2022-10-17T03:42:49.400Z,14.09
2022-10-17T03:43:49.390Z,14.08
2022-10-17T03:44:49.381Z,14.08
2022-10-17T03:45:49.401Z,14.08
2022-10-17T03:46:49.362Z,14.08
2022-10-17T03:47:49.352Z,14.08
2022-10-17T03:48:49.343Z,14.09
2022-10-17T03:49:49.329Z,14.08
2022-10-17T03:50:49.370Z,14.08
2022-10-17T03:51:49.312Z,14.08
2022-10-17T03:52:49.301Z,14.05
2022-10-17T03:53:49.460Z,14.05
2022-10-17T03:54:49.271Z,14.05
2022-10-17T03:55:49.261Z,14.04
2022-10-17T03:56:49.267Z,14.05
2022-10-17T03:57:56.273Z,14.05
2022-10-17T03:58:49.272Z,14.08
2022-10-17T03:59:49.251Z,14.08
2022-10-17T04:00:49.232Z,14.11
2022-10-17T04:01:49.214Z,14.12
2022-10-17T04:02:49.210Z,14.13
2022-10-17T04:03:49.182Z,14.13
2022-10-17T04:04:49.188Z,14.13
2022-10-17T04:05:49.833Z,14.13
2022-10-17T04:06:49.164Z,14.18
2022-10-17T04:07:49.145Z,14.19
2022-10-17T04:08:49.147Z,14.23
2022-10-17T04:09:49.122Z,14.26
2022-10-17T04:10:49.152Z,14.27
2022-10-17T04:11:49.102Z,14.28
2022-10-17T04:12:49.092Z,14.30
2022-10-17T04:13:49.074Z,14.31
2022-10-17T04:14:49.072Z,14.33
2022-10-17T04:15:49.050Z,14.36
2022-10-17T04:16:49.071Z,14.38
2022-10-17T04:17:49.032Z,14.40
2022-10-17T04:18:49.021Z,14.40
2022-10-17T04:19:49.010Z,14.38
2022-10-17T04:20:49.001Z,14.38
2022-10-17T04:21:49.020Z,14.38
2022-10-17T04:22:48.981Z,14.36
2022-10-17T04:23:48.970Z,14.37
2022-10-17T04:24:49.001Z,14.36
2022-10-17T04:25:48.963Z,14.34
2022-10-17T04:26:48.939Z,14.34
2022-10-17T04:27:48.941Z,14.31
2022-10-17T04:28:48.920Z,14.31
2022-10-17T04:29:48.905Z,14.30
2022-10-17T04:30:49.962Z,14.28
2022-10-17T04:31:48.881Z,14.27
2022-10-17T04:32:48.872Z,14.26
2022-10-17T04:33:48.863Z,14.26
2022-10-17T04:34:48.880Z,14.27
2022-10-17T04:35:48.830Z,14.26
2022-10-17T04:36:48.822Z,14.27
2022-10-17T04:37:48.808Z,14.30
2022-10-17T04:38:48.800Z,14.33
2022-10-17T04:39:48.791Z,14.36
2022-10-17T04:40:48.818Z,14.36
2022-10-17T04:41:48.767Z,14.36
2022-10-17T04:42:48.781Z,14.37
2022-10-17T04:43:51.176Z,14.37
2022-10-17T04:44:48.740Z,14.37
2022-10-17T04:45:48.729Z,14.38
2022-10-17T04:46:48.771Z,14.38
2022-10-17T04:47:48.700Z,14.38
2022-10-17T04:48:48.730Z,14.38
2022-10-17T04:49:48.696Z,14.38
2022-10-17T04:50:48.671Z,14.40
2022-10-17T04:51:48.689Z,14.44
2022-10-17T04:52:48.649Z,14.44
2022-10-17T04:53:48.700Z,14.44
2022-10-17T04:54:48.628Z,14.44
2022-10-17T04:55:48.640Z,14.44
2022-10-17T04:56:48.625Z,14.41
2022-10-17T04:57:48.600Z,14.41
2022-10-17T04:58:48.591Z,14.41
2022-10-17T04:59:48.612Z,14.40
2022-10-17T05:00:48.576Z,14.40
2022-10-17T05:01:48.551Z,14.38
2022-10-17T05:02:48.549Z,14.38
2022-10-17T05:03:48.541Z,14.38
2022-10-17T05:04:48.521Z,14.37
2022-10-17T05:05:48.543Z,14.36
2022-10-17T05:06:48.511Z,14.33
2022-10-17T05:07:48.501Z,14.31
2022-10-17T05:08:48.482Z,14.31
2022-10-17T05:09:48.489Z,14.31
2022-10-17T05:10:48.533Z,14.30
2022-10-17T05:11:48.592Z,14.28
2022-10-17T05:12:48.440Z,14.27
2022-10-17T05:13:48.471Z,14.26
2022-10-17T05:14:48.451Z,14.27
2022-10-17T05:15:48.399Z,14.27
2022-10-17T05:16:48.392Z,14.23
2022-10-17T05:17:48.381Z,14.23
2022-10-17T05:18:51.921Z,14.23
2022-10-17T05:19:48.381Z,14.23
2022-10-17T05:20:48.350Z,14.22
2022-10-17T05:21:48.333Z,14.23
2022-10-17T05:22:48.329Z,14.26
2022-10-17T05:23:48.380Z,14.26
2022-10-17T05:24:48.310Z,14.27
2022-10-17T05:25:48.299Z,14.27
2022-10-17T05:26:48.289Z,14.27
2022-10-17T05:27:48.309Z,14.27
2022-10-17T05:28:48.347Z,14.26
2022-10-17T05:29:48.250Z,14.22
2022-10-17T05:30:48.269Z,14.23
2022-10-17T05:31:48.280Z,14.22
2022-10-17T05:32:48.240Z,14.22
2022-10-17T05:33:48.211Z,14.22
2022-10-17T05:34:48.190Z,14.22
2022-10-17T05:35:48.187Z,14.23
2022-10-17T05:36:48.216Z,14.27
2022-10-17T05:37:48.150Z,14.28
2022-10-17T05:38:48.160Z,14.28
2022-10-17T05:39:51.327Z,14.28
2022-10-17T05:40:48.177Z,14.31
2022-10-17T05:41:48.127Z,14.33
2022-10-17T05:42:48.112Z,14.34
2022-10-17T05:43:48.110Z,14.34
2022-10-17T05:44:48.089Z,14.34
2022-10-17T05:45:48.090Z,14.34
2022-10-17T05:46:48.090Z,14.34
2022-10-17T05:47:48.060Z,14.34
2022-10-17T05:48:48.051Z,14.33
2022-10-17T05:49:52.088Z,14.33
2022-10-17T05:50:48.054Z,14.33
2022-10-17T05:51:48.010Z,14.34
2022-10-17T05:52:48.041Z,14.37
2022-10-17T05:53:47.993Z,14.38
2022-10-17T05:54:47.989Z,14.38
2022-10-17T05:55:47.978Z,14.38
2022-10-17T05:56:48.012Z,14.38
2022-10-17T05:57:47.940Z,14.40
2022-10-17T05:58:50.981Z,14.38
2022-10-17T05:59:47.991Z,14.38
2022-10-17T06:00:47.930Z,14.38
2022-10-17T06:01:47.979Z,14.38
2022-10-17T06:02:47.903Z,14.38
2022-10-17T06:03:47.975Z,14.34
2022-10-17T06:04:47.880Z,14.34
2022-10-17T06:05:47.861Z,14.34
2022-10-17T06:06:47.852Z,14.36
2022-10-17T06:07:47.992Z,14.37
2022-10-17T06:08:47.831Z,14.37
2022-10-17T06:09:47.813Z,14.37
2022-10-17T06:10:47.821Z,14.38
2022-10-17T06:11:47.801Z,14.40
2022-10-17T06:12:47.791Z,14.40
2022-10-17T06:13:47.811Z,14.40
2022-10-17T06:14:47.770Z,14.40
2022-10-17T06:15:47.751Z,14.40
2022-10-17T06:16:47.742Z,14.44
2022-10-17T06:17:47.741Z,14.41
2022-10-17T06:19:47.710Z,14.44
2022-10-17T06:20:47.709Z,14.44
2022-10-17T06:21:47.729Z,14.44
2022-10-17T06:22:47.679Z,14.48
2022-10-17T06:23:47.668Z,14.48
2022-10-17T06:24:47.693Z,14.51
2022-10-17T06:25:47.681Z,14.53
2022-10-17T06:26:47.780Z,14.53
2022-10-17T06:27:47.658Z,14.58
2022-10-17T06:28:47.671Z,14.59
2022-10-17T06:29:47.601Z,14.63
2022-10-17T06:30:47.590Z,14.67
2022-10-17T06:31:47.571Z,14.67
2022-10-17T06:32:47.601Z,14.67
2022-10-17T06:33:47.557Z,14.69
2022-10-17T06:34:47.550Z,14.71
2022-10-17T06:35:47.531Z,14.73
2022-10-17T06:36:47.574Z,14.74
2022-10-17T06:37:47.623Z,14.77
2022-10-17T06:38:47.520Z,14.78
2022-10-17T06:39:47.522Z,14.82
2022-10-17T06:40:47.491Z,14.86
2022-10-17T06:41:47.502Z,14.87
2022-10-17T06:42:47.542Z,14.89
2022-10-17T06:43:47.464Z,14.90
2022-10-17T06:44:47.441Z,14.92
2022-10-17T06:45:47.551Z,14.95
2022-10-17T06:46:47.421Z,14.95
2022-10-17T06:47:47.645Z,14.96
2022-10-17T06:48:47.391Z,14.97
2022-10-17T06:49:47.391Z,14.99
2022-10-17T06:50:47.369Z,14.99
2022-10-17T06:51:47.363Z,14.97
2022-10-17T06:52:47.381Z,15.01
2022-10-17T06:53:47.343Z,15.01
2022-10-17T06:54:47.351Z,15.03
2022-10-17T06:55:47.331Z,15.05
2022-10-17T06:56:47.336Z,15.07
2022-10-17T06:57:47.342Z,15.08
2022-10-17T06:58:47.297Z,15.11
2022-10-17T06:59:47.282Z,15.12
2022-10-17T07:00:47.324Z,15.12
2022-10-17T07:01:47.344Z,15.14
2022-10-17T07:02:47.241Z,15.19
2022-10-17T07:03:47.282Z,15.20
2022-10-17T07:04:47.211Z,15.22
2022-10-17T07:05:47.223Z,15.25
2022-10-17T07:06:47.262Z,15.27
2022-10-17T07:07:49.674Z,15.29
2022-10-17T07:08:47.204Z,15.32
2022-10-17T07:09:47.170Z,15.33
2022-10-17T07:10:47.158Z,15.38
2022-10-17T07:11:47.172Z,15.40
2022-10-17T07:12:47.133Z,15.43
2022-10-17T07:13:47.179Z,15.44
2022-10-17T07:14:47.102Z,15.45
2022-10-17T07:15:47.127Z,15.50
2022-10-17T07:16:47.100Z,15.51
2022-10-17T07:17:47.082Z,15.54
2022-10-17T07:18:47.072Z,15.58
2022-10-17T07:19:48.795Z,15.59
2022-10-17T07:20:47.062Z,15.59
2022-10-17T07:21:47.040Z,15.62
2022-10-17T07:22:47.024Z,15.63
2022-10-17T07:23:47.020Z,15.65
2022-10-17T07:24:47.138Z,15.68
2022-10-17T07:25:47.013Z,15.69
2022-10-17T07:26:46.981Z,15.72
2022-10-17T07:27:46.972Z,15.73
2022-10-17T07:28:47.012Z,15.77
2022-10-17T07:29:46.952Z,15.78
2022-10-17T07:30:50.705Z,15.81
2022-10-17T07:31:47.970Z,15.84
2022-10-17T07:32:46.910Z,15.87
2022-10-17T07:34:46.890Z,15.95
2022-10-17T07:35:46.893Z,15.99
2022-10-17T07:36:46.882Z,16.03
2022-10-17T07:37:46.905Z,16.05
2022-10-17T07:38:46.883Z,16.08
2022-10-17T07:39:46.850Z,16.13
2022-10-17T07:40:46.821Z,16.18
2022-10-17T07:41:46.839Z,16.22
2022-10-17T07:42:46.911Z,16.26
2022-10-17T07:43:46.804Z,16.29
2022-10-17T07:44:48.252Z,16.33
2022-10-17T07:45:46.781Z,16.37
2022-10-17T07:46:46.771Z,16.40
2022-10-17T07:47:46.782Z,16.43
2022-10-17T07:48:46.799Z,16.46
2022-10-17T07:49:46.741Z,16.54
2022-10-17T07:50:46.729Z,16.57
2022-10-17T07:52:46.768Z,16.67
2022-10-17T07:53:48.825Z,16.72
2022-10-17T07:54:46.701Z,16.74
2022-10-17T07:55:46.712Z,16.79
2022-10-17T07:56:46.663Z,16.83
2022-10-17T07:57:46.642Z,16.88
2022-10-17T07:58:49.878Z,16.95
2022-10-17T07:59:46.623Z,16.99
2022-10-17T08:00:46.705Z,17.02
2022-10-17T08:01:46.632Z,17.09
2022-10-17T08:02:46.591Z,17.12
2022-10-17T08:03:46.628Z,17.17
2022-10-17T08:04:46.568Z,17.20
2022-10-17T08:05:46.571Z,17.25
2022-10-17T08:06:46.547Z,17.28
2022-10-17T08:07:46.544Z,17.32
2022-10-17T08:08:46.812Z,17.37
2022-10-17T08:09:46.512Z,17.38
2022-10-17T08:10:46.533Z,17.41
2022-10-17T08:11:46.499Z,17.46
2022-10-17T08:12:46.479Z,17.47
2022-10-17T08:13:46.504Z,17.52
2022-10-17T08:14:46.492Z,17.53
2022-10-17T08:15:46.509Z,17.54
2022-10-17T08:16:46.463Z,17.59
2022-10-17T08:17:46.422Z,17.62
2022-10-17T08:18:46.433Z,17.63
2022-10-17T08:19:46.406Z,17.68
2022-10-17T08:20:46.423Z,17.72
2022-10-17T08:21:46.393Z,17.75
2022-10-17T08:22:46.459Z,17.79
2022-10-17T08:23:46.382Z,17.84
2022-10-17T08:24:46.362Z,17.88
2022-10-17T08:25:46.342Z,17.91
2022-10-17T08:26:49.568Z,17.96
2022-10-17T08:27:47.420Z,17.99
2022-10-17T08:28:46.359Z,18.03
2022-10-17T08:29:46.293Z,18.06
2022-10-17T08:30:46.291Z,18.09
2022-10-17T08:31:47.882Z,18.13
2022-10-17T08:32:46.299Z,18.15
2022-10-17T08:33:46.324Z,18.20
2022-10-17T08:34:46.249Z,18.24
2022-10-17T08:35:46.240Z,18.27
2022-10-17T08:36:46.222Z,18.31
2022-10-17T08:37:46.223Z,18.33
2022-10-17T08:38:51.639Z,18.36
2022-10-17T08:39:50.510Z,18.41
2022-10-17T08:40:46.183Z,18.45
2022-10-17T08:41:46.174Z,18.51
2022-10-17T08:42:46.154Z,18.56
2022-10-17T08:43:46.162Z,18.56
2022-10-17T08:44:46.147Z,18.58
2022-10-17T08:45:46.152Z,18.60
2022-10-17T08:46:46.113Z,18.64
2022-10-17T08:47:51.913Z,18.68
2022-10-17T08:48:46.715Z,18.71
2022-10-17T08:49:46.086Z,18.75
2022-10-17T08:50:46.071Z,18.78
2022-10-17T08:51:46.125Z,18.81
2022-10-17T08:52:46.052Z,18.82
2022-10-17T08:53:46.043Z,18.85
2022-10-17T08:54:46.042Z,18.88
2022-10-17T08:55:46.042Z,18.93
2022-10-17T08:56:49.562Z,18.94
2022-10-17T08:57:46.044Z,18.97
2022-10-17T08:58:45.992Z,18.98
2022-10-17T08:59:45.976Z,19.04
2022-10-17T09:00:45.956Z,19.04
2022-10-17T09:01:45.957Z,19.05
2022-10-17T09:02:45.997Z,19.08
2022-10-17T09:03:46.033Z,19.12
2022-10-17T09:04:45.921Z,19.12
2022-10-17T09:05:45.904Z,19.13
2022-10-17T09:06:45.894Z,19.13
2022-10-17T09:07:45.883Z,19.16
2022-10-17T09:08:45.874Z,19.16
2022-10-17T09:09:45.893Z,19.17
2022-10-17T09:10:45.845Z,19.19
2022-10-17T09:11:45.845Z,19.19
2022-10-17T09:12:45.824Z,19.20
2022-10-17T09:13:45.876Z,19.22
2022-10-17T09:14:45.803Z,19.23
2022-10-17T09:15:47.612Z,19.23
2022-10-17T09:16:45.785Z,19.24
2022-10-17T09:17:45.783Z,19.27
2022-10-17T09:18:45.790Z,19.27
2022-10-17T09:19:45.774Z,19.31
2022-10-17T09:20:45.733Z,19.32
2022-10-17T09:21:45.794Z,19.34
2022-10-17T09:22:45.787Z,19.34
2022-10-17T09:23:45.714Z,19.35
2022-10-17T09:24:46.363Z,19.38
2022-10-17T09:25:45.718Z,19.41
2022-10-17T09:26:45.674Z,19.42
2022-10-17T09:27:45.671Z,19.47
2022-10-17T09:28:45.693Z,19.52
2022-10-17T09:29:45.653Z,19.54
2022-10-17T09:30:46.580Z,19.57
2022-10-17T09:31:45.662Z,19.60
2022-10-17T09:32:45.655Z,19.62
2022-10-17T09:34:00.735Z,19.68
2022-10-17T09:34:46.584Z,19.70
2022-10-17T09:35:45.588Z,19.74
2022-10-17T09:36:45.623Z,19.79
2022-10-17T09:37:45.561Z,19.84
2022-10-17T09:38:45.536Z,19.89
2022-10-17T09:39:45.585Z,19.93
2022-10-17T09:40:45.546Z,19.96
2022-10-17T09:41:47.292Z,19.99
2022-10-17T09:42:45.512Z,20.05
2022-10-17T09:43:45.513Z,20.08
2022-10-17T09:44:45.498Z,20.11
2022-10-17T09:45:45.508Z,20.12
2022-10-17T09:46:45.455Z,20.15
2022-10-17T09:47:45.453Z,20.17
2022-10-17T09:48:46.945Z,20.19
2022-10-17T09:49:45.444Z,20.19
2022-10-17T09:50:50.604Z,20.23
2022-10-17T09:51:46.415Z,20.25
2022-10-17T09:52:45.385Z,20.25
2022-10-17T09:53:45.376Z,20.25
2022-10-17T09:54:45.363Z,20.25
2022-10-17T09:55:45.357Z,20.23
2022-10-17T09:56:45.386Z,20.25
2022-10-17T09:58:46.748Z,20.22
2022-10-17T09:59:46.730Z,20.22
2022-10-17T10:00:46.804Z,20.22
2022-10-17T10:01:53.411Z,20.22
2022-10-17T10:02:46.743Z,20.19
2022-10-17T10:03:46.680Z,20.22
2022-10-17T10:05:03.335Z,20.19
2022-10-17T10:05:47.660Z,20.19
2022-10-17T10:06:46.641Z,20.19
2022-10-17T10:07:46.649Z,20.19
2022-10-17T10:08:46.668Z,20.19
2022-10-17T10:09:46.612Z,20.22
2022-10-17T10:10:48.861Z,20.18
2022-10-17T10:11:46.617Z,20.15
2022-10-17T10:12:46.578Z,20.17
2022-10-17T10:13:46.572Z,20.15
2022-10-17T10:14:47.440Z,20.14
2022-10-17T10:15:46.552Z,20.14
2022-10-17T10:16:46.534Z,20.12
2022-10-17T10:17:46.531Z,20.11
2022-10-17T10:18:48.730Z,20.09
2022-10-17T10:19:46.502Z,20.08
2022-10-17T10:20:46.493Z,20.11
2022-10-17T10:21:47.162Z,20.09
2022-10-17T10:22:46.460Z,20.09
2022-10-17T10:23:46.461Z,20.08
2022-10-17T10:24:46.469Z,20.08
2022-10-17T10:25:46.460Z,20.07
2022-10-17T10:26:46.420Z,20.07
2022-10-17T10:27:46.421Z,20.07
2022-10-17T10:28:46.452Z,20.05
2022-10-17T10:29:46.391Z,20.04
2022-10-17T10:30:46.371Z,20.04
2022-10-17T10:31:46.391Z,20.02
2022-10-17T10:32:46.361Z,20.02
2022-10-17T10:33:49.572Z,20.02
2022-10-17T10:34:46.331Z,20.05
2022-10-17T10:35:46.512Z,20.05
2022-10-17T10:36:46.332Z,20.05
2022-10-17T10:37:46.313Z,20.05
2022-10-17T10:38:46.292Z,20.04
2022-10-17T10:39:46.552Z,20.04
2022-10-17T10:40:46.271Z,20.04
2022-10-17T10:41:46.271Z,20.02
2022-10-17T10:42:46.252Z,20.00
2022-10-17T10:43:46.242Z,20.00
2022-10-17T10:44:46.232Z,20.00
2022-10-17T10:45:48.732Z,19.99
2022-10-17T10:46:46.203Z,19.97
2022-10-17T10:47:48.604Z,19.97
2022-10-17T10:48:46.433Z,19.97
2022-10-17T10:49:46.175Z,19.99
2022-10-17T10:50:46.179Z,20.02
2022-10-17T10:51:46.163Z,20.04
2022-10-17T10:52:46.162Z,20.02
2022-10-17T10:53:46.179Z,20.05
2022-10-17T10:54:46.135Z,20.08
2022-10-17T10:55:46.116Z,20.08
2022-10-17T10:56:48.716Z,20.11
2022-10-17T10:57:47.104Z,20.12
2022-10-17T10:58:46.073Z,20.15
2022-10-17T10:59:46.084Z,20.18
2022-10-17T11:00:46.079Z,20.23
2022-10-17T11:01:46.045Z,20.23
2022-10-17T11:02:46.052Z,20.26
2022-10-17T11:03:46.025Z,20.27
2022-10-17T11:04:46.032Z,20.32
2022-10-17T11:05:46.005Z,20.34
2022-10-17T11:06:46.023Z,20.39
2022-10-17T11:07:45.985Z,20.42
2022-10-17T11:08:45.964Z,20.44
2022-10-17T11:09:45.954Z,20.48
2022-10-17T11:10:45.949Z,20.48
2022-10-17T11:11:45.941Z,20.49
2022-10-17T11:12:45.958Z,20.52
2022-10-17T11:13:47.777Z,20.52
2022-10-17T11:14:45.895Z,20.52
2022-10-17T11:15:45.897Z,20.49
2022-10-17T11:16:45.874Z,20.48
2022-10-17T11:17:45.960Z,20.46
2022-10-17T11:18:45.993Z,20.44
2022-10-17T11:19:45.956Z,20.42
2022-10-17T11:20:45.825Z,20.42
2022-10-17T11:21:45.833Z,20.41
2022-10-17T11:22:45.836Z,20.39
2022-10-17T11:23:45.915Z,20.37
2022-10-17T11:24:45.784Z,20.36
2022-10-17T11:25:45.816Z,20.36
2022-10-17T11:26:45.765Z,20.37
2022-10-17T11:27:45.765Z,20.39
2022-10-17T11:28:45.787Z,20.36
2022-10-17T11:29:45.743Z,20.39
2022-10-17T11:30:45.732Z,20.36
2022-10-17T11:31:45.746Z,20.36
2022-10-17T11:32:45.751Z,20.37
2022-10-17T11:33:45.726Z,20.34
2022-10-17T11:34:45.689Z,20.33
2022-10-17T11:35:45.684Z,20.33
2022-10-17T11:36:45.675Z,20.33
2022-10-17T11:37:48.385Z,20.32
2022-10-17T11:38:45.667Z,20.30
2022-10-17T11:40:45.646Z,20.29
2022-10-17T11:41:45.606Z,20.30
2022-10-17T11:42:45.596Z,20.26
2022-10-17T11:43:45.657Z,20.26
2022-10-17T11:44:45.587Z,20.27
2022-10-17T11:45:45.603Z,20.26
2022-10-17T11:46:45.565Z,20.26
2022-10-17T11:47:45.546Z,20.25
2022-10-17T11:48:45.526Z,20.26
2022-10-17T11:49:47.288Z,20.25
2022-10-17T11:52:02.847Z,20.23
2022-10-17T11:53:02.213Z,20.22
2022-10-17T11:53:46.475Z,20.18
2022-10-17T11:54:45.456Z,20.17
2022-10-17T11:55:45.476Z,20.15
2022-10-17T11:56:45.436Z,20.15
2022-10-17T11:57:45.436Z,20.15
2022-10-17T11:58:45.420Z,20.17
2022-10-17T11:59:45.408Z,20.15
2022-10-17T12:00:48.868Z,20.18
2022-10-17T12:01:51.407Z,20.18
2022-10-17T12:02:45.386Z,20.22
2022-10-17T12:03:45.368Z,20.19
2022-10-17T12:04:49.375Z,20.18
2022-10-17T12:05:45.345Z,20.19
2022-10-17T12:06:45.367Z,20.22
2022-10-17T12:07:45.330Z,20.22
2022-10-17T12:08:45.307Z,20.19
2022-10-17T12:09:45.297Z,20.22
2022-10-17T12:10:45.287Z,20.23
2022-10-17T12:11:45.328Z,20.25
2022-10-17T12:12:45.266Z,20.25
2022-10-17T12:13:45.260Z,20.26
2022-10-17T12:14:45.243Z,20.26
2022-10-17T12:15:46.723Z,20.27
2022-10-17T12:16:45.242Z,20.30
2022-10-17T12:17:46.627Z,20.30
2022-10-17T12:18:45.197Z,20.32
2022-10-17T12:19:45.199Z,20.32
2022-10-17T12:20:45.180Z,20.32
2022-10-17T12:21:45.170Z,20.30
2022-10-17T12:22:45.189Z,20.30
2022-10-17T12:23:45.148Z,20.30
2022-10-17T12:24:45.129Z,20.29
2022-10-17T12:25:45.163Z,20.26
2022-10-17T12:26:45.160Z,20.26
2022-10-17T12:27:45.119Z,20.25
2022-10-17T12:28:45.152Z,20.22
2022-10-17T12:29:45.079Z,20.22
2022-10-17T12:30:45.069Z,20.18
2022-10-17T12:31:45.059Z,20.15
2022-10-17T12:33:03.746Z,20.15
2022-10-17T12:33:46.039Z,20.14
2022-10-17T12:34:45.048Z,20.11
2022-10-17T12:35:45.018Z,20.12
2022-10-17T12:36:44.999Z,20.09
2022-10-17T12:37:45.006Z,20.08
2022-10-17T12:38:49.213Z,20.08
2022-10-17T12:39:45.979Z,20.05
2022-10-17T12:40:48.681Z,20.05
2022-10-17T12:41:44.951Z,20.04
2022-10-17T12:42:48.009Z,20.02
2022-10-17T12:43:45.052Z,20.00
2022-10-17T12:44:47.858Z,19.99
2022-10-17T12:45:45.909Z,19.99
2022-10-17T12:46:44.889Z,19.96
2022-10-17T12:47:44.900Z,19.94
2022-10-17T12:48:44.869Z,19.93
2022-10-17T12:49:44.871Z,19.93
2022-10-17T12:50:44.899Z,19.90
2022-10-17T12:51:44.851Z,19.90
2022-10-17T12:52:44.907Z,19.89
2022-10-17T12:53:44.822Z,19.87
2022-10-17T12:54:48.120Z,19.84
2022-10-17T12:55:45.832Z,19.86
2022-10-17T12:56:44.841Z,19.86
2022-10-17T12:57:44.790Z,19.82
2022-10-17T12:58:44.772Z,19.82
2022-10-17T12:59:44.781Z,19.81
2022-10-17T13:00:59.430Z,19.79